RYR84AL GMMX-LIPH
Flight info
| Callsign | RYR84AL |
|---|---|
| Flight time | N/A |
| Altitude | 36000 |
| Route | OBOGA UG850 BERUM DCT GONZA N860 RESTU DCT ALT DCT SUMMO DCT MITOS DCT BRUNO DCT RUXET DCT IZA DCT TUKRO DCT ASMOT DCT PTC DCT MHN DCT MORSS DCT BAVON DCT ORKUM DCT ELSAG DCT ALG DCT OLBEK DCT IBROS DCT MAREL DCT TIPNI DCT BOA DCT LUMAV DCT ROVIG |
| Aircraft | B738/M-SDE3FGILRWY/SB1 |
Departure
| Time | N/A |
|---|---|
| Airport | Marrakesh Menara Airport (GMMX) |
Arrival
| Time | 2026-04-28 13:26 |
|---|---|
| Airport | Treviso Airport (LIPH) |
| Time | Latitude | Longitude | Altitude | Speed | Heading |
|---|---|---|---|---|---|
| 2026-04-28 12:10 | 40.17262 | 5.62690 | 36029 ft | 456 kts | 74° |
| 2026-04-28 12:10 | 40.18138 | 5.66678 | 36031 ft | 456 kts | 74° |
| 2026-04-28 12:10 | 40.19894 | 5.74698 | 36031 ft | 457 kts | 74° |
| 2026-04-28 12:11 | 40.21631 | 5.82661 | 36037 ft | 457 kts | 74° |
| 2026-04-28 12:11 | 40.23377 | 5.90694 | 36032 ft | 457 kts | 74° |
| 2026-04-28 12:12 | 40.25104 | 5.98666 | 36030 ft | 457 kts | 74° |
| 2026-04-28 12:12 | 40.26839 | 6.06699 | 36037 ft | 458 kts | 74° |
| 2026-04-28 12:13 | 40.28558 | 6.14684 | 36030 ft | 458 kts | 74° |
| 2026-04-28 12:13 | 40.30286 | 6.22734 | 36036 ft | 459 kts | 74° |
| 2026-04-28 12:14 | 40.32013 | 6.30811 | 36033 ft | 459 kts | 74° |
| 2026-04-28 12:14 | 40.33723 | 6.38837 | 36036 ft | 460 kts | 74° |
| 2026-04-28 12:15 | 40.35439 | 6.46923 | 36037 ft | 460 kts | 74° |
| 2026-04-28 12:15 | 40.37146 | 6.54999 | 36036 ft | 461 kts | 74° |
| 2026-04-28 12:16 | 40.38846 | 6.63073 | 36035 ft | 461 kts | 74° |
| 2026-04-28 12:16 | 40.40548 | 6.71183 | 36039 ft | 461 kts | 74° |
| 2026-04-28 12:17 | 40.42246 | 6.79310 | 36040 ft | 462 kts | 74° |
| 2026-04-28 12:17 | 40.43939 | 6.87440 | 36039 ft | 462 kts | 74° |
| 2026-04-28 12:18 | 40.45627 | 6.95580 | 36037 ft | 462 kts | 74° |
| 2026-04-28 12:18 | 40.47309 | 7.03725 | 36043 ft | 462 kts | 74° |
| 2026-04-28 12:19 | 40.48990 | 7.11896 | 36041 ft | 463 kts | 74° |
| 2026-04-28 12:19 | 40.50661 | 7.20047 | 36038 ft | 463 kts | 74° |
| 2026-04-28 12:20 | 40.52328 | 7.28211 | 36040 ft | 463 kts | 74° |
| 2026-04-28 12:20 | 40.53991 | 7.36393 | 36040 ft | 463 kts | 74° |
| 2026-04-28 12:21 | 40.55648 | 7.44570 | 36045 ft | 463 kts | 74° |
| 2026-04-28 12:21 | 40.56944 | 7.52846 | 36052 ft | 464 kts | 83° |
| 2026-04-28 12:22 | 40.57613 | 7.61264 | 36034 ft | 464 kts | 84° |
| 2026-04-28 12:22 | 40.58262 | 7.69727 | 36042 ft | 464 kts | 83° |
| 2026-04-28 12:23 | 40.58964 | 7.78161 | 36038 ft | 465 kts | 83° |
| 2026-04-28 12:23 | 40.59681 | 7.86606 | 36042 ft | 465 kts | 83° |
| 2026-04-28 12:24 | 40.60392 | 7.95074 | 36033 ft | 466 kts | 83° |
| 2026-04-28 12:24 | 40.61094 | 8.03534 | 36030 ft | 466 kts | 83° |
| 2026-04-28 12:25 | 40.61792 | 8.12024 | 36030 ft | 466 kts | 83° |
| 2026-04-28 12:25 | 40.62502 | 8.20497 | 36018 ft | 467 kts | 80° |
| 2026-04-28 12:26 | 40.64353 | 8.28598 | 36014 ft | 463 kts | 61° |
| 2026-04-28 12:26 | 40.67363 | 8.36071 | 36026 ft | 463 kts | 59° |
| 2026-04-28 12:27 | 40.70437 | 8.43528 | 36027 ft | 463 kts | 59° |
| 2026-04-28 12:27 | 40.73491 | 8.51070 | 36030 ft | 464 kts | 60° |
| 2026-04-28 12:28 | 40.76490 | 8.58580 | 36026 ft | 464 kts | 60° |
| 2026-04-28 12:28 | 40.79482 | 8.66111 | 36022 ft | 464 kts | 60° |
| 2026-04-28 12:29 | 40.83942 | 8.77370 | 36028 ft | 463 kts | 60° |
| 2026-04-28 12:30 | 40.86918 | 8.84903 | 36015 ft | 462 kts | 60° |
| 2026-04-28 12:30 | 40.89896 | 8.92462 | 36023 ft | 460 kts | 60° |
| 2026-04-28 12:31 | 40.92846 | 8.99966 | 36019 ft | 460 kts | 60° |
| 2026-04-28 12:31 | 40.95786 | 9.07464 | 36021 ft | 459 kts | 60° |
| 2026-04-28 12:32 | 40.98715 | 9.14953 | 36022 ft | 458 kts | 60° |
| 2026-04-28 12:32 | 41.01638 | 9.22448 | 36027 ft | 458 kts | 60° |
| 2026-04-28 12:33 | 41.04534 | 9.29889 | 36029 ft | 457 kts | 60° |
| 2026-04-28 12:33 | 41.07439 | 9.37373 | 36026 ft | 457 kts | 60° |
| 2026-04-28 12:34 | 41.10336 | 9.44859 | 36023 ft | 456 kts | 60° |
| 2026-04-28 12:34 | 41.13228 | 9.52348 | 36027 ft | 456 kts | 60° |
| 2026-04-28 12:35 | 41.16118 | 9.59853 | 36038 ft | 456 kts | 60° |
| 2026-04-28 12:35 | 41.18993 | 9.67336 | 36050 ft | 455 kts | 60° |
| 2026-04-28 12:36 | 41.21876 | 9.74860 | 36059 ft | 455 kts | 60° |
| 2026-04-28 12:36 | 41.24930 | 9.82191 | 36038 ft | 451 kts | 47° |
| 2026-04-28 12:36 | 41.27172 | 9.84997 | 36080 ft | 443 kts | 31° |
| 2026-04-28 12:37 | 41.29856 | 9.86956 | 36058 ft | 436 kts | 16° |
| 2026-04-28 12:37 | 41.35654 | 9.89088 | 36072 ft | 433 kts | 11° |
| 2026-04-28 12:38 | 41.41477 | 9.91058 | 36072 ft | 434 kts | 11° |
| 2026-04-28 12:38 | 41.47328 | 9.93117 | 36067 ft | 436 kts | 12° |
| 2026-04-28 12:39 | 41.52195 | 9.94871 | 36074 ft | 436 kts | 12° |
| 2026-04-28 12:39 | 41.58079 | 9.97005 | 36075 ft | 437 kts | 12° |
| 2026-04-28 12:40 | 41.63965 | 9.99142 | 36075 ft | 438 kts | 12° |
| 2026-04-28 12:40 | 41.69846 | 10.01281 | 36076 ft | 438 kts | 12° |
| 2026-04-28 12:41 | 41.75732 | 10.03425 | 36076 ft | 438 kts | 12° |
| 2026-04-28 12:41 | 41.81621 | 10.05595 | 36079 ft | 438 kts | 12° |
| 2026-04-28 12:42 | 41.87458 | 10.07902 | 36076 ft | 438 kts | 13° |
| 2026-04-28 12:42 | 41.93282 | 10.10243 | 36079 ft | 437 kts | 13° |
| 2026-04-28 12:43 | 41.99111 | 10.12577 | 36079 ft | 437 kts | 13° |
| 2026-04-28 12:43 | 42.04931 | 10.14900 | 36078 ft | 436 kts | 13° |
| 2026-04-28 12:44 | 42.10743 | 10.17220 | 36080 ft | 435 kts | 13° |
| 2026-04-28 12:44 | 42.16530 | 10.19535 | 36079 ft | 435 kts | 13° |
| 2026-04-28 12:45 | 42.22323 | 10.21856 | 36081 ft | 435 kts | 13° |
| 2026-04-28 12:45 | 42.28123 | 10.24185 | 36081 ft | 434 kts | 13° |
| 2026-04-28 12:46 | 42.33936 | 10.26524 | 36081 ft | 434 kts | 13° |
| 2026-04-28 12:46 | 42.39703 | 10.28849 | 36076 ft | 434 kts | 13° |
| 2026-04-28 12:47 | 42.45483 | 10.31184 | 36079 ft | 435 kts | 13° |
| 2026-04-28 12:47 | 42.51275 | 10.33527 | 36080 ft | 435 kts | 13° |
| 2026-04-28 12:48 | 42.57073 | 10.35878 | 36082 ft | 435 kts | 13° |
| 2026-04-28 12:48 | 42.62885 | 10.38239 | 36076 ft | 436 kts | 13° |
| 2026-04-28 12:49 | 42.68689 | 10.40602 | 36081 ft | 436 kts | 13° |
| 2026-04-28 12:49 | 42.74482 | 10.42965 | 36070 ft | 436 kts | 13° |
| 2026-04-28 12:50 | 42.80311 | 10.45347 | 36076 ft | 436 kts | 13° |
| 2026-04-28 12:50 | 42.86131 | 10.47730 | 36071 ft | 436 kts | 13° |
| 2026-04-28 12:51 | 42.91958 | 10.50121 | 36075 ft | 436 kts | 13° |
| 2026-04-28 12:51 | 42.97763 | 10.52507 | 36085 ft | 437 kts | 13° |
| 2026-04-28 12:52 | 43.03573 | 10.54900 | 36073 ft | 437 kts | 13° |
| 2026-04-28 12:52 | 43.09391 | 10.57302 | 36077 ft | 437 kts | 13° |
| 2026-04-28 12:53 | 43.15193 | 10.59701 | 36074 ft | 437 kts | 13° |
| 2026-04-28 12:53 | 43.21041 | 10.62125 | 36074 ft | 437 kts | 13° |
| 2026-04-28 12:54 | 43.26838 | 10.64532 | 36066 ft | 437 kts | 13° |
| 2026-04-28 12:54 | 43.32577 | 10.67299 | 36066 ft | 438 kts | 18° |
| 2026-04-28 12:55 | 43.38247 | 10.70462 | 36064 ft | 439 kts | 18° |
| 2026-04-28 12:55 | 43.43885 | 10.73625 | 36053 ft | 438 kts | 18° |
| 2026-04-28 12:56 | 43.49515 | 10.76738 | 36053 ft | 437 kts | 18° |
| 2026-04-28 12:56 | 43.55126 | 10.79824 | 36056 ft | 429 kts | 18° |
| 2026-04-28 12:57 | 43.60613 | 10.82840 | 36047 ft | 425 kts | 17° |
| 2026-04-28 12:57 | 43.63364 | 10.84353 | 35711 ft | 426 kts | 18° |
| 2026-04-28 12:57 | 43.66102 | 10.85863 | 35428 ft | 419 kts | 18° |
| 2026-04-28 12:57 | 43.68804 | 10.87354 | 35029 ft | 416 kts | 18° |
| 2026-04-28 12:58 | 43.71486 | 10.88836 | 34661 ft | 413 kts | 18° |
| 2026-04-28 12:58 | 43.74124 | 10.90294 | 34278 ft | 411 kts | 18° |
| 2026-04-28 12:58 | 43.76769 | 10.91758 | 33897 ft | 409 kts | 18° |
| 2026-04-28 12:58 | 43.79420 | 10.93226 | 33474 ft | 406 kts | 18° |
| 2026-04-28 12:59 | 43.82032 | 10.94674 | 33071 ft | 404 kts | 18° |
| 2026-04-28 12:59 | 43.84610 | 10.96105 | 32681 ft | 401 kts | 18° |
| 2026-04-28 12:59 | 43.87192 | 10.97539 | 32308 ft | 398 kts | 18° |
| 2026-04-28 12:59 | 43.89763 | 10.98969 | 31942 ft | 395 kts | 18° |
| 2026-04-28 13:00 | 43.92309 | 11.00386 | 31586 ft | 393 kts | 18° |
| 2026-04-28 13:00 | 43.94855 | 11.01804 | 31231 ft | 391 kts | 18° |
| 2026-04-28 13:00 | 43.97370 | 11.03206 | 30878 ft | 388 kts | 18° |
| 2026-04-28 13:00 | 43.99847 | 11.04589 | 30545 ft | 386 kts | 18° |
| 2026-04-28 13:01 | 44.02337 | 11.05980 | 30192 ft | 384 kts | 18° |
| 2026-04-28 13:01 | 44.04813 | 11.07364 | 29796 ft | 382 kts | 18° |
| 2026-04-28 13:01 | 44.07284 | 11.08746 | 29421 ft | 379 kts | 18° |
| 2026-04-28 13:01 | 44.09706 | 11.10103 | 29050 ft | 376 kts | 18° |
| 2026-04-28 13:02 | 44.12123 | 11.11459 | 28711 ft | 373 kts | 18° |
| 2026-04-28 13:02 | 44.14500 | 11.12792 | 28376 ft | 370 kts | 18° |
| 2026-04-28 13:02 | 44.16891 | 11.14134 | 28008 ft | 368 kts | 18° |
| 2026-04-28 13:02 | 44.19273 | 11.15474 | 27649 ft | 366 kts | 18° |
| 2026-04-28 13:03 | 44.21574 | 11.16768 | 27300 ft | 364 kts | 18° |
| 2026-04-28 13:03 | 44.23930 | 11.18094 | 26916 ft | 362 kts | 18° |
| 2026-04-28 13:03 | 44.26247 | 11.19399 | 26571 ft | 360 kts | 18° |
| 2026-04-28 13:03 | 44.28568 | 11.20708 | 26206 ft | 359 kts | 18° |
| 2026-04-28 13:04 | 44.30895 | 11.21947 | 25828 ft | 356 kts | 12° |
| 2026-04-28 13:04 | 44.33271 | 11.22782 | 25341 ft | 356 kts | 8° |
| 2026-04-28 13:04 | 44.35686 | 11.23513 | 24977 ft | 355 kts | 7° |
| 2026-04-28 13:04 | 44.38110 | 11.24235 | 24601 ft | 355 kts | 7° |
| 2026-04-28 13:05 | 44.40530 | 11.24967 | 24237 ft | 354 kts | 8° |
| 2026-04-28 13:05 | 44.42933 | 11.25708 | 23861 ft | 354 kts | 8° |
| 2026-04-28 13:05 | 44.45302 | 11.26449 | 23491 ft | 353 kts | 8° |
| 2026-04-28 13:05 | 44.47708 | 11.27206 | 23093 ft | 352 kts | 8° |
| 2026-04-28 13:06 | 44.50079 | 11.27955 | 22720 ft | 350 kts | 8° |
| 2026-04-28 13:06 | 44.52432 | 11.28842 | 22349 ft | 352 kts | 17° |
| 2026-04-28 13:06 | 44.54632 | 11.30313 | 22004 ft | 353 kts | 27° |
| 2026-04-28 13:06 | 44.56634 | 11.32340 | 21651 ft | 355 kts | 36° |
| 2026-04-28 13:07 | 44.58532 | 11.34555 | 21300 ft | 354 kts | 37° |
| 2026-04-28 13:07 | 44.60376 | 11.36764 | 20950 ft | 353 kts | 37° |
| 2026-04-28 13:07 | 44.62244 | 11.39004 | 20616 ft | 351 kts | 37° |
| 2026-04-28 13:07 | 44.64091 | 11.41202 | 20277 ft | 349 kts | 37° |
| 2026-04-28 13:08 | 44.65965 | 11.43419 | 19951 ft | 348 kts | 37° |
| 2026-04-28 13:08 | 44.67811 | 11.45595 | 19622 ft | 346 kts | 37° |
| 2026-04-28 13:08 | 44.69662 | 11.47773 | 19290 ft | 345 kts | 37° |
| 2026-04-28 13:08 | 44.71488 | 11.49919 | 18971 ft | 344 kts | 37° |
| 2026-04-28 13:09 | 44.73319 | 11.52073 | 18642 ft | 343 kts | 37° |
| 2026-04-28 13:09 | 44.75154 | 11.54231 | 18285 ft | 343 kts | 37° |
| 2026-04-28 13:09 | 44.76979 | 11.56381 | 17918 ft | 342 kts | 37° |
| 2026-04-28 13:09 | 44.78798 | 11.58525 | 17573 ft | 340 kts | 37° |
| 2026-04-28 13:10 | 44.80581 | 11.60654 | 17224 ft | 339 kts | 41° |
| 2026-04-28 13:10 | 44.82095 | 11.63194 | 16915 ft | 338 kts | 57° |
| 2026-04-28 13:10 | 44.83245 | 11.66064 | 16613 ft | 335 kts | 60° |
| 2026-04-28 13:10 | 44.84346 | 11.68963 | 16269 ft | 334 kts | 60° |
| 2026-04-28 13:11 | 44.85440 | 11.71846 | 15929 ft | 332 kts | 60° |
| 2026-04-28 13:11 | 44.86539 | 11.74713 | 15610 ft | 331 kts | 60° |
| 2026-04-28 13:11 | 44.87640 | 11.77555 | 15282 ft | 329 kts | 60° |
| 2026-04-28 13:11 | 44.88726 | 11.80347 | 14959 ft | 328 kts | 60° |
| 2026-04-28 13:12 | 44.89822 | 11.83161 | 14647 ft | 326 kts | 60° |
| 2026-04-28 13:12 | 44.90992 | 11.85883 | 14315 ft | 324 kts | 48° |
| 2026-04-28 13:12 | 44.92736 | 11.87862 | 13999 ft | 318 kts | 24° |
| 2026-04-28 13:12 | 44.94831 | 11.88710 | 13658 ft | 313 kts | 3° |
| 2026-04-28 13:13 | 44.96970 | 11.88506 | 13312 ft | 308 kts | 347° |
| 2026-04-28 13:13 | 44.99063 | 11.87899 | 12986 ft | 306 kts | 345° |
| 2026-04-28 13:13 | 45.01109 | 11.87241 | 12650 ft | 304 kts | 345° |
| 2026-04-28 13:13 | 45.03171 | 11.86569 | 12320 ft | 303 kts | 345° |
| 2026-04-28 13:14 | 45.05220 | 11.85909 | 12004 ft | 301 kts | 345° |
| 2026-04-28 13:14 | 45.07264 | 11.85259 | 11682 ft | 300 kts | 345° |
| 2026-04-28 13:14 | 45.09294 | 11.84617 | 11389 ft | 300 kts | 345° |
| 2026-04-28 13:14 | 45.11319 | 11.83982 | 11073 ft | 300 kts | 345° |
| 2026-04-28 13:15 | 45.13385 | 11.83338 | 10742 ft | 301 kts | 346° |
| 2026-04-28 13:15 | 45.15414 | 11.82709 | 10426 ft | 301 kts | 346° |
| 2026-04-28 13:15 | 45.17460 | 11.82072 | 10202 ft | 299 kts | 346° |
| 2026-04-28 13:15 | 45.19465 | 11.81446 | 10010 ft | 295 kts | 345° |
| 2026-04-28 13:16 | 45.21426 | 11.80824 | 9955 ft | 284 kts | 345° |
| 2026-04-28 13:16 | 45.23396 | 11.80195 | 9402 ft | 293 kts | 345° |
| 2026-04-28 13:16 | 45.25390 | 11.79571 | 9032 ft | 294 kts | 346° |
| 2026-04-28 13:16 | 45.27399 | 11.78962 | 8709 ft | 294 kts | 346° |
| 2026-04-28 13:17 | 45.29332 | 11.78372 | 8391 ft | 286 kts | 346° |
| 2026-04-28 13:17 | 45.31255 | 11.77781 | 8072 ft | 278 kts | 346° |
| 2026-04-28 13:17 | 45.33110 | 11.77206 | 7797 ft | 269 kts | 345° |
| 2026-04-28 13:17 | 45.34893 | 11.76651 | 7534 ft | 264 kts | 346° |
| 2026-04-28 13:18 | 45.36677 | 11.76094 | 7281 ft | 262 kts | 346° |
| 2026-04-28 13:18 | 45.38465 | 11.75536 | 7005 ft | 262 kts | 346° |
| 2026-04-28 13:18 | 45.40244 | 11.74979 | 6742 ft | 261 kts | 346° |
| 2026-04-28 13:18 | 45.42020 | 11.74426 | 6465 ft | 261 kts | 346° |
| 2026-04-28 13:19 | 45.43781 | 11.73880 | 6198 ft | 262 kts | 346° |
| 2026-04-28 13:19 | 45.45567 | 11.73323 | 5906 ft | 262 kts | 346° |
| 2026-04-28 13:19 | 45.47351 | 11.72768 | 5621 ft | 263 kts | 347° |
| 2026-04-28 13:19 | 45.49179 | 11.72595 | 5322 ft | 265 kts | 6° |
| 2026-04-28 13:20 | 45.50938 | 11.73325 | 5036 ft | 265 kts | 27° |
| 2026-04-28 13:20 | 45.52411 | 11.74894 | 4773 ft | 264 kts | 48° |
| 2026-04-28 13:20 | 45.53464 | 11.77034 | 4499 ft | 262 kts | 61° |
| 2026-04-28 13:20 | 45.54252 | 11.79338 | 4259 ft | 259 kts | 67° |
| 2026-04-28 13:21 | 45.54696 | 11.80903 | 4234 ft | 253 kts | 69° |
| 2026-04-28 13:21 | 45.55481 | 11.83880 | 4094 ft | 243 kts | 70° |
| 2026-04-28 13:21 | 45.56062 | 11.86112 | 3989 ft | 236 kts | 70° |
| 2026-04-28 13:21 | 45.56631 | 11.88287 | 3902 ft | 230 kts | 69° |
| 2026-04-28 13:22 | 45.57182 | 11.90385 | 3703 ft | 229 kts | 70° |
| 2026-04-28 13:22 | 45.57740 | 11.92521 | 3482 ft | 228 kts | 70° |
| 2026-04-28 13:22 | 45.58302 | 11.94652 | 3253 ft | 229 kts | 70° |
| 2026-04-28 13:22 | 45.58864 | 11.96776 | 3058 ft | 227 kts | 70° |
| 2026-04-28 13:23 | 45.59404 | 11.98833 | 2854 ft | 223 kts | 70° |
| 2026-04-28 13:23 | 45.59955 | 12.00927 | 2580 ft | 222 kts | 69° |
| 2026-04-28 13:23 | 45.60485 | 12.02924 | 2308 ft | 216 kts | 70° |
| 2026-04-28 13:23 | 45.61003 | 12.04893 | 2036 ft | 207 kts | 70° |
| 2026-04-28 13:24 | 45.61506 | 12.06784 | 1725 ft | 198 kts | 70° |
| 2026-04-28 13:24 | 45.61965 | 12.08530 | 1500 ft | 179 kts | 70° |
| 2026-04-28 13:24 | 45.62387 | 12.10125 | 1283 ft | 162 kts | 70° |
| 2026-04-28 13:24 | 45.62767 | 12.11549 | 1097 ft | 143 kts | 71° |
| 2026-04-28 13:25 | 45.63117 | 12.12878 | 886 ft | 142 kts | 70° |
| 2026-04-28 13:25 | 45.63472 | 12.14165 | 680 ft | 137 kts | 72° |
| 2026-04-28 13:25 | 45.63794 | 12.15424 | 484 ft | 136 kts | 66° |
| 2026-04-28 13:25 | 45.64139 | 12.16673 | 302 ft | 134 kts | 72° |
| 2026-04-28 13:26 | 45.64459 | 12.17913 | 119 ft | 135 kts | 69° |
| 2026-04-28 13:26 | 45.64791 | 12.19174 | 69 ft | 135 kts | 71° |
| 2026-04-28 13:26 | 45.65067 | 12.20207 | 65 ft | 59 kts | 69° |
| 2026-04-28 13:26 | 45.65129 | 12.20441 | 65 ft | 41 kts | 69° |
| 2026-04-28 13:27 | 45.65181 | 12.20641 | 63 ft | 0 kts | 71° |
| 2026-04-28 13:27 | 45.65183 | 12.20652 | 67 ft | 8 kts | 71° |
| 2026-04-28 13:28 | 45.65239 | 12.20781 | 66 ft | 31 kts | 28° |
| 2026-04-28 13:28 | 45.65366 | 12.20721 | 73 ft | 15 kts | 312° |
| 2026-04-28 13:28 | 45.65355 | 12.20592 | 66 ft | 13 kts | 251° |
| 2026-04-28 13:28 | 45.65346 | 12.20554 | 68 ft | 0 kts | 252° |
| 2026-04-28 13:29 | 45.65345 | 12.20546 | 69 ft | 1 kts | 252° |
| 2026-04-28 13:29 | 45.65343 | 12.20541 | 70 ft | 2 kts | 252° |
| 2026-04-28 13:29 | 45.65341 | 12.20529 | 70 ft | 1 kts | 251° |
| 2026-04-28 13:29 | 45.65339 | 12.20516 | 72 ft | 2 kts | 260° |
| 2026-04-28 13:30 | 45.65338 | 12.20503 | 73 ft | 2 kts | 265° |
| 2026-04-28 13:30 | 45.65337 | 12.20490 | 73 ft | 1 kts | 265° |
| 2026-04-28 13:30 | 45.65337 | 12.20476 | 73 ft | 2 kts | 272° |
| 2026-04-28 13:30 | 45.65343 | 12.20460 | 73 ft | 10 kts | 302° |
| 2026-04-28 13:31 | 45.65389 | 12.20405 | 72 ft | 0 kts | 324° |